Main page
METAR-TAF:

METAR-TAF

Airports :

Kugluktuk Airport

Kugluktuk, Nunavut, Canada

latitude: 67-49N, longitude: 115-08W, elevation: 22 m

Current weather observation

The report was made 37 minutes ago, at 12:00 UTC
Wind 5 kt from the North/Northwest
Temperature -31°C
Humidity 75%
Pressure 1017 hPa
Visibility: 24.1 km
Clear sky
ice crystals

METAR: CYCO 221200Z 34005KT 15SM IC SKC M31/M34 A3003 RMK SLP174

Time: 06:37 (12:37 UTC)

Forecast

The report was made 5 hours and 57 minutes ago, at 06:40 UTC
Forecast valid from 22 at 07 UTC to 22 at 19 UTC
Wind 3 kt from variable directions
Visibility: 10 km
Clear sky
Becoming
from 22 at 07 UTC to 22 at 09 UTC
Wind 6 kt from the Southwest

TAF: CYCO 220640Z 2207/2219 VRB03KT P6SM SKC BECMG 2207/2209 22006KT RMK NXT FCST BY 221300Z

Weather observations and forecasts of more than 4000 airports (METAR and TAF reports).

The available stations are represented by yellow and red dots on the map.

Hover mouse over dot to see the name of the station.

Then click to see weather observations and forecasts.

To change the map : click on the green buttons with a black cross to zoom in, on the green button with a dash to zoom out, or on the green arrows for adjacent maps.


METAR-TAF: